Djerba-Zarzis

Airport
ICAO code: 
DTTJ
Summary
ICAO Region: 
AFI
Territory: 
Location: 
Djerba, Tunisia,
Coordinates: 
Aerial View: 
33° 52' 30" N, 10° 46' 31.801" E
Metar
Observation
DTTJ 182330Z 20004KT 8000 NSC 09/06 Q1033 NOSIG
Station
Djerba Mellita
Date/Time
2022-01-18 23:30:00
Wind direction
200°
Wind speed
04 kts
Lowest cloud amount
nil significant cloud
Temperature
9°C
Dew point
6°C
Humidity
81%
QNH
1033 hPa
Weather condition
n/a

Description

Djerba - Zarzis International Airport is an airport serving Djerba in Tunisia.

Climatology

(Köppen climate classification BSh)

Runways

Designator Length Width Surface Rops
9/27 3100 45 ASP Yes/Yes
Airport map: 
Aerial View: 

SKYbrary Partners:

Safety knowledge contributed by: